createdAt,value
2022-10-16T00:00:52.937Z,1
2022-10-16T00:04:45.791Z,1
2022-10-16T00:06:49.121Z,1
2022-10-16T00:08:46.074Z,1
2022-10-16T00:10:46.590Z,1
2022-10-16T00:12:44.374Z,1
2022-10-16T00:14:49.758Z,1
2022-10-16T00:16:52.927Z,1
2022-10-16T00:18:49.130Z,1
2022-10-16T00:20:46.435Z,1
2022-10-16T00:22:46.628Z,1
2022-10-16T00:24:55.412Z,1
2022-10-16T00:26:46.496Z,1
2022-10-16T00:28:58.652Z,1
2022-10-16T00:30:48.812Z,1
2022-10-16T00:32:48.936Z,1
2022-10-16T00:34:45.933Z,1
2022-10-16T00:36:46.361Z,1
2022-10-16T00:38:52.887Z,1
2022-10-16T00:40:49.144Z,1
2022-10-16T00:44:49.367Z,1
2022-10-16T00:46:46.241Z,1
2022-10-16T00:48:48.898Z,1
2022-10-16T00:50:46.526Z,1
2022-10-16T00:52:55.992Z,1
2022-10-16T00:54:49.838Z,1
2022-10-16T00:56:45.658Z,1
2022-10-16T00:58:49.121Z,1
2022-10-16T01:00:45.750Z,1
2022-10-16T01:02:49.008Z,1
2022-10-16T01:04:46.652Z,1
2022-10-16T01:06:46.469Z,1
2022-10-16T01:08:49.455Z,1
2022-10-16T01:10:49.296Z,1
2022-10-16T01:12:48.972Z,1
2022-10-16T01:16:46.382Z,1
2022-10-16T01:18:48.915Z,1
2022-10-16T01:20:55.538Z,1
2022-10-16T01:22:49.881Z,1
2022-10-16T01:24:49.297Z,1
2022-10-16T01:28:46.328Z,1
2022-10-16T01:30:52.431Z,1
2022-10-16T01:34:46.212Z,1
2022-10-16T01:36:46.233Z,1
2022-10-16T01:38:46.161Z,1
2022-10-16T01:40:45.816Z,1
2022-10-16T01:42:49.835Z,1
2022-10-16T01:44:45.811Z,1
2022-10-16T01:46:46.417Z,1
2022-10-16T01:48:46.232Z,1
2022-10-16T01:50:48.842Z,1
2022-10-16T01:52:49.087Z,1
2022-10-16T01:54:46.541Z,1
2022-10-16T01:56:46.447Z,1
2022-10-16T01:58:55.884Z,1
2022-10-16T02:00:46.417Z,1
2022-10-16T02:02:45.960Z,1
2022-10-16T02:04:46.540Z,1
2022-10-16T02:06:45.723Z,1
2022-10-16T02:08:46.123Z,1
2022-10-16T02:10:52.684Z,1
2022-10-16T02:12:46.277Z,1
2022-10-16T02:14:48.847Z,1
2022-10-16T02:16:46.441Z,1
2022-10-16T02:18:45.805Z,1
2022-10-16T02:20:49.619Z,1
2022-10-16T02:22:49.602Z,1
2022-10-16T02:24:55.600Z,1
2022-10-16T02:26:49.906Z,1
2022-10-16T02:28:49.291Z,1
2022-10-16T02:30:52.487Z,1
2022-10-16T02:32:48.982Z,1
2022-10-16T02:34:49.229Z,1
2022-10-16T02:36:49.594Z,1
2022-10-16T02:38:49.188Z,1
2022-10-16T02:40:52.437Z,1
2022-10-16T02:42:45.796Z,1
2022-10-16T02:44:55.682Z,1
2022-10-16T02:46:45.649Z,1
2022-10-16T02:48:48.459Z,1
2022-10-16T02:50:46.626Z,1
2022-10-16T02:52:52.940Z,1
2022-10-16T02:54:49.313Z,1
2022-10-16T02:56:46.435Z,1
2022-10-16T02:58:45.792Z,1
2022-10-16T03:00:46.269Z,1
2022-10-16T03:02:46.478Z,1
2022-10-16T03:04:46.419Z,1
2022-10-16T03:06:49.218Z,1
2022-10-16T03:10:52.906Z,1
2022-10-16T03:12:46.534Z,1
2022-10-16T03:14:46.509Z,1
2022-10-16T03:16:46.403Z,1
2022-10-16T03:18:46.476Z,1
2022-10-16T03:20:49.587Z,1
2022-10-16T03:22:49.412Z,1
2022-10-16T03:24:45.767Z,1
2022-10-16T03:26:46.585Z,1
2022-10-16T03:28:55.773Z,1
2022-10-16T03:30:49.368Z,1
2022-10-16T03:32:48.710Z,1
2022-10-16T03:34:46.355Z,1
2022-10-16T03:36:46.322Z,1
2022-10-16T03:38:52.906Z,1
2022-10-16T03:40:49.907Z,1
2022-10-16T03:44:46.603Z,1
2022-10-16T03:46:45.779Z,1
2022-10-16T03:48:45.772Z,1
2022-10-16T03:50:46.293Z,1
2022-10-16T03:52:49.313Z,1
2022-10-16T03:54:50.112Z,1
2022-10-16T03:56:59.137Z,1
2022-10-16T03:58:49.132Z,1
2022-10-16T04:00:49.841Z,1
2022-10-16T04:02:48.418Z,1
2022-10-16T04:04:46.236Z,1
2022-10-16T04:06:46.685Z,1
2022-10-16T04:08:46.355Z,1
2022-10-16T04:10:46.781Z,1
2022-10-16T04:12:46.458Z,1
2022-10-16T04:14:55.776Z,1
2022-10-16T04:16:53.059Z,1
2022-10-16T04:18:46.267Z,1
2022-10-16T04:20:49.097Z,1
2022-10-16T04:22:46.548Z,1
2022-10-16T04:24:46.489Z,1
2022-10-16T04:26:49.095Z,1
2022-10-16T04:28:55.859Z,1
2022-10-16T04:30:46.392Z,1
2022-10-16T04:32:49.821Z,1
2022-10-16T04:34:49.480Z,1
2022-10-16T04:36:49.680Z,1
2022-10-16T04:38:46.422Z,1
2022-10-16T04:40:45.784Z,1
2022-10-16T04:42:45.998Z,1
2022-10-16T04:44:46.355Z,1
2022-10-16T04:46:53.020Z,1
2022-10-16T04:48:49.593Z,1
2022-10-16T04:50:51.719Z,0
2022-10-16T04:52:46.497Z,0
2022-10-16T04:54:45.952Z,0
2022-10-16T04:56:52.662Z,0.1
2022-10-16T04:58:46.419Z,0.1
2022-10-16T05:00:46.418Z,0.2
2022-10-16T05:02:45.988Z,0.4
2022-10-16T05:04:49.914Z,0.6
2022-10-16T05:06:52.912Z,1
2022-10-16T05:08:46.336Z,1.4
2022-10-16T05:10:45.764Z,2.3
2022-10-16T05:12:46.318Z,3.5
2022-10-16T05:14:45.747Z,5.2
2022-10-16T05:16:47.655Z,7.8
2022-10-16T05:18:53.146Z,11.6
2022-10-16T05:20:49.828Z,17.3
2022-10-16T05:22:55.933Z,24.5
2022-10-16T05:24:46.157Z,33.1
2022-10-16T05:26:45.882Z,42.5
2022-10-16T05:28:46.418Z,57.4
2022-10-16T05:30:49.090Z,73.7
2022-10-16T05:32:46.493Z,94.6
2022-10-16T05:34:45.807Z,121.5
2022-10-16T05:36:45.829Z,156
2022-10-16T05:38:55.893Z,190.6
2022-10-16T05:40:46.617Z,210.6
2022-10-16T05:42:49.068Z,232.8
2022-10-16T05:44:52.679Z,244.7
2022-10-16T05:46:56.094Z,270.4
2022-10-16T05:48:45.780Z,284.3
2022-10-16T05:50:46.225Z,330.3
2022-10-16T05:52:49.653Z,383.8
2022-10-16T05:56:52.908Z,492.7
2022-10-16T05:58:49.751Z,572.5
2022-10-16T06:00:49.113Z,699.2
2022-10-16T06:02:44.239Z,772.8
2022-10-16T06:06:46.219Z,897.8
2022-10-16T06:08:45.830Z,992.3
2022-10-16T06:10:45.986Z,1152.9
2022-10-16T06:12:49.395Z,1212
2022-10-16T06:14:52.439Z,1339.4
2022-10-16T06:16:46.471Z,1480.3
2022-10-16T06:18:52.972Z,1556.2
2022-10-16T06:20:45.848Z,1636
2022-10-16T06:22:45.921Z,1636
2022-10-16T06:24:49.467Z,1636
2022-10-16T06:26:49.590Z,1636
2022-10-16T06:28:49.063Z,1636
2022-10-16T06:30:46.668Z,1719.9
2022-10-16T06:32:46.514Z,1808
2022-10-16T06:34:47.263Z,1719.9
2022-10-16T06:36:45.785Z,1808
2022-10-16T06:38:46.424Z,1900.7
2022-10-16T06:40:49.621Z,1998.2
2022-10-16T06:42:46.374Z,1900.7
2022-10-16T06:44:46.406Z,1998.2
2022-10-16T06:46:49.767Z,2208.3
2022-10-16T06:48:45.792Z,2321.6
2022-10-16T06:50:46.503Z,2440.6
2022-10-16T06:52:45.760Z,2565.7
2022-10-16T06:54:49.762Z,2565.7
2022-10-16T06:56:46.290Z,2440.6
2022-10-16T06:58:46.491Z,2440.6
2022-10-16T07:00:46.261Z,2321.6
2022-10-16T07:02:46.501Z,2440.6
2022-10-16T07:04:49.868Z,2565.7
2022-10-16T07:06:52.932Z,2440.6
2022-10-16T07:08:46.550Z,2835.6
2022-10-16T07:10:46.654Z,3294.5
2022-10-16T07:12:46.537Z,3463.4
2022-10-16T07:14:52.991Z,6002.9
2022-10-16T07:16:52.759Z,24343
2022-10-16T07:18:54.150Z,28282.5
2022-10-16T07:20:44.372Z,29732.6
2022-10-16T07:22:46.531Z,29732.6
2022-10-16T07:24:53.167Z,31257
2022-10-16T07:26:45.815Z,31257
2022-10-16T07:28:52.976Z,32859.6
2022-10-16T07:30:49.773Z,34544.4
2022-10-16T07:32:49.671Z,8955.3
2022-10-16T07:34:45.826Z,8955.3
2022-10-16T07:36:49.789Z,8518.5
2022-10-16T07:38:46.339Z,19930.4
2022-10-16T07:40:46.461Z,18033.7
2022-10-16T07:42:46.428Z,38177.4
2022-10-16T07:44:46.740Z,36315.5
2022-10-16T07:46:49.835Z,36315.5
2022-10-16T07:48:46.307Z,38177.4
2022-10-16T07:50:45.836Z,38177.4
2022-10-16T07:52:46.559Z,40134.8
2022-10-16T07:54:49.452Z,40134.8
2022-10-16T07:56:46.499Z,40134.8
2022-10-16T07:58:46.357Z,32859.6
2022-10-16T08:00:46.020Z,42192.6
2022-10-16T08:02:49.801Z,44355.9
2022-10-16T08:04:46.055Z,46630
2022-10-16T08:06:46.328Z,46630
2022-10-16T08:08:52.910Z,46630
2022-10-16T08:10:46.516Z,28282.5
2022-10-16T08:12:49.787Z,13359.7
2022-10-16T08:14:49.623Z,10938
2022-10-16T08:16:46.443Z,12708.2
2022-10-16T08:18:52.930Z,14044.7
2022-10-16T08:20:46.241Z,26903.2
2022-10-16T08:22:52.786Z,36315.5
2022-10-16T08:24:45.798Z,28282.5
2022-10-16T08:26:45.948Z,40134.8
2022-10-16T08:28:49.632Z,18033.7
2022-10-16T08:30:46.642Z,14764.8
2022-10-16T08:35:40.559Z,16317.6
2022-10-16T08:39:36.254Z,20952.2
2022-10-16T08:41:36.532Z,22026.5
2022-10-16T08:43:35.768Z,20952.2
2022-10-16T08:45:39.533Z,17154.2
2022-10-16T08:47:39.955Z,13359.7
2022-10-16T08:51:37.092Z,10404.6
2022-10-16T08:53:35.791Z,10404.6
2022-10-16T08:55:42.972Z,10404.6
2022-10-16T08:57:36.244Z,11498.8
2022-10-16T08:59:39.860Z,10404.6
2022-10-16T09:01:35.699Z,10938
2022-10-16T09:03:36.328Z,8103.1
2022-10-16T09:05:35.790Z,8103.1
2022-10-16T09:07:36.480Z,8103.1
2022-10-16T09:09:40.238Z,8103.1
2022-10-16T09:11:35.780Z,8518.5
2022-10-16T09:13:36.434Z,8103.1
2022-10-16T09:15:39.657Z,8103.1
2022-10-16T09:17:36.542Z,8103.1
2022-10-16T09:19:35.801Z,8103.1
2022-10-16T09:21:42.950Z,8103.1
2022-10-16T09:23:39.729Z,8518.5
2022-10-16T09:25:35.826Z,8518.5
2022-10-16T09:27:39.321Z,9414.4
2022-10-16T09:29:36.017Z,10404.6
2022-10-16T09:31:39.120Z,12708.2
2022-10-16T09:33:36.530Z,15521.8
2022-10-16T09:35:36.505Z,19930.4
2022-10-16T09:37:36.157Z,22026.5
2022-10-16T09:39:36.329Z,26903.2
2022-10-16T09:41:36.499Z,28282.5
2022-10-16T09:43:36.231Z,18958.4
2022-10-16T09:45:35.906Z,19930.4
2022-10-16T09:47:36.479Z,18033.7
2022-10-16T09:49:35.824Z,17154.2
2022-10-16T09:51:35.825Z,14764.8
2022-10-16T09:53:36.417Z,15521.8
2022-10-16T09:55:34.974Z,16317.6
2022-10-16T09:59:36.228Z,22026.5
2022-10-16T10:01:38.858Z,32859.6
2022-10-16T10:03:42.945Z,34544.4
2022-10-16T10:05:38.964Z,51534.2
2022-10-16T10:07:36.381Z,42192.6
2022-10-16T10:09:42.772Z,49020.8
2022-10-16T10:11:35.859Z,42192.6
2022-10-16T10:13:39.483Z,29732.6
2022-10-16T10:15:36.089Z,32859.6
2022-10-16T10:17:39.337Z,34544.4
2022-10-16T10:19:38.855Z,98715.8
2022-10-16T10:21:35.839Z,49020.8
2022-10-16T10:23:36.231Z,66171.2
2022-10-16T10:25:36.325Z,40134.8
2022-10-16T10:27:36.349Z,51534.2
2022-10-16T10:29:39.697Z,69563.8
2022-10-16T10:31:36.034Z,20952.2
2022-10-16T10:33:39.891Z,22026.5
2022-10-16T10:35:36.694Z,29732.6
2022-10-16T10:37:35.901Z,14764.8
2022-10-16T10:39:36.371Z,16317.6
2022-10-16T10:43:36.254Z,31257
2022-10-16T10:45:39.422Z,36315.5
2022-10-16T10:47:39.734Z,76879.9
2022-10-16T10:49:44.203Z,51534.2
2022-10-16T10:51:39.665Z,89321.7
2022-10-16T10:53:39.902Z,84965.5
2022-10-16T10:55:35.776Z,89321.7
2022-10-16T10:57:39.536Z,34544.4
2022-10-16T10:59:39.887Z,26903.2
2022-10-16T11:01:36.384Z,20952.2
2022-10-16T11:03:35.823Z,26903.2
2022-10-16T11:05:36.375Z,24343
2022-10-16T11:07:36.048Z,31257
2022-10-16T11:09:35.702Z,69563.8
2022-10-16T11:11:35.720Z,36315.5
2022-10-16T11:13:36.068Z,28282.5
2022-10-16T11:15:36.064Z,23155.8
2022-10-16T11:17:36.450Z,23155.8
2022-10-16T11:19:36.339Z,15521.8
2022-10-16T11:21:39.630Z,13359.7
2022-10-16T11:23:35.813Z,12708.2
2022-10-16T11:27:42.737Z,18033.7
2022-10-16T11:29:43.014Z,17154.2
2022-10-16T11:31:42.939Z,25591.1
2022-10-16T11:33:35.816Z,24343
2022-10-16T11:35:36.303Z,25591.1
2022-10-16T11:37:42.666Z,18033.7
2022-10-16T11:39:35.852Z,13359.7
2022-10-16T11:41:36.364Z,12088.4
2022-10-16T11:43:36.299Z,10938
2022-10-16T11:45:36.483Z,13359.7
2022-10-16T11:47:57.966Z,23155.8
2022-10-16T11:49:36.468Z,19930.4
2022-10-16T11:51:36.255Z,20952.2
2022-10-16T11:53:39.863Z,18958.4
2022-10-16T11:55:36.523Z,17154.2
2022-10-16T11:57:35.921Z,23155.8
2022-10-16T11:59:42.684Z,13359.7
2022-10-16T12:01:36.409Z,12088.4
2022-10-16T12:03:36.388Z,10938
2022-10-16T12:05:36.567Z,8955.3
2022-10-16T12:07:36.422Z,8955.3
2022-10-16T12:09:36.715Z,9414.4
2022-10-16T12:11:35.705Z,9414.4
2022-10-16T12:13:35.860Z,9897.1
2022-10-16T12:15:58.559Z,10938
2022-10-16T12:17:39.552Z,10404.6
2022-10-16T12:19:36.351Z,12708.2
2022-10-16T12:21:36.359Z,26903.2
2022-10-16T12:23:39.933Z,23155.8
2022-10-16T12:25:36.546Z,40134.8
2022-10-16T12:27:36.279Z,56954
2022-10-16T12:29:35.982Z,14764.8
2022-10-16T12:31:42.620Z,13359.7
2022-10-16T12:33:36.490Z,31257
2022-10-16T12:35:36.373Z,26903.2
2022-10-16T12:37:42.507Z,14764.8
2022-10-16T12:39:42.523Z,14044.7
2022-10-16T12:41:36.423Z,18958.4
2022-10-16T12:43:36.337Z,24343
2022-10-16T12:45:36.591Z,34544.4
2022-10-16T12:49:36.448Z,49020.8
2022-10-16T12:51:36.504Z,66171.2
2022-10-16T12:53:39.908Z,66171.2
2022-10-16T12:55:36.452Z,62944
2022-10-16T12:57:38.142Z,40134.8
2022-10-16T12:59:36.411Z,62944
2022-10-16T13:01:43.062Z,59874.1
2022-10-16T13:03:39.432Z,59874.1
2022-10-16T13:05:39.537Z,54176.4
2022-10-16T13:07:36.765Z,51534.2
2022-10-16T13:09:36.036Z,62944
2022-10-16T13:11:39.627Z,62944
2022-10-16T13:13:36.529Z,54176.4
2022-10-16T13:15:36.542Z,49020.8
2022-10-16T13:19:42.456Z,51534.2
2022-10-16T13:21:35.887Z,59874.1
2022-10-16T13:23:36.535Z,42192.6
2022-10-16T13:25:36.626Z,18033.7
2022-10-16T13:27:36.673Z,13359.7
2022-10-16T13:29:36.576Z,24343
2022-10-16T13:31:36.359Z,22026.5
2022-10-16T13:33:35.849Z,12088.4
2022-10-16T13:35:42.895Z,26903.2
2022-10-16T13:37:36.635Z,16317.6
2022-10-16T13:39:35.772Z,14044.7
2022-10-16T13:41:35.978Z,14044.7
2022-10-16T13:43:35.856Z,11498.8
2022-10-16T13:45:43.054Z,8955.3
2022-10-16T13:47:39.331Z,7707.9
2022-10-16T13:49:36.065Z,9414.4
2022-10-16T13:51:43.018Z,8955.3
2022-10-16T13:53:35.964Z,8955.3
2022-10-16T13:55:36.331Z,9414.4
2022-10-16T13:57:39.843Z,8518.5
2022-10-16T13:59:36.614Z,6634.2
2022-10-16T14:01:36.246Z,5710.1
2022-10-16T14:03:36.108Z,6002.9
2022-10-16T14:05:36.348Z,6002.9
2022-10-16T14:07:39.848Z,5710.1
2022-10-16T14:09:36.631Z,6002.9
2022-10-16T14:11:35.743Z,5710.1
2022-10-16T14:13:36.319Z,6002.9
2022-10-16T14:15:36.351Z,5710.1
2022-10-16T14:17:35.880Z,5166.8
2022-10-16T14:19:39.901Z,5431.7
2022-10-16T14:21:36.084Z,5166.8
2022-10-16T14:23:35.871Z,5166.8
2022-10-16T14:25:43.117Z,5166.8
2022-10-16T14:27:35.755Z,5166.8
2022-10-16T14:29:36.356Z,5431.7
2022-10-16T14:31:35.839Z,5431.7
2022-10-16T14:33:36.240Z,5431.7
2022-10-16T14:35:39.933Z,5166.8
2022-10-16T14:37:36.368Z,4914.8
2022-10-16T14:39:35.867Z,4675.1
2022-10-16T14:41:35.827Z,4675.1
2022-10-16T14:43:35.863Z,4023.9
2022-10-16T14:45:36.499Z,4023.9
2022-10-16T14:47:35.963Z,4023.9
2022-10-16T14:49:39.504Z,3827.6
2022-10-16T14:51:35.762Z,3641
2022-10-16T14:53:42.244Z,3463.4
2022-10-16T14:57:36.692Z,3463.4
2022-10-16T14:59:39.464Z,3294.5
2022-10-16T15:03:30.473Z,3294.5
2022-10-16T15:05:28.109Z,3294.5
2022-10-16T15:07:30.551Z,3294.5
2022-10-16T15:09:28.112Z,3133.8
2022-10-16T15:11:31.271Z,3133.8
2022-10-16T15:13:28.419Z,3133.8
2022-10-16T15:15:28.308Z,2981
2022-10-16T15:19:34.823Z,2697.3
2022-10-16T15:21:28.216Z,2697.3
2022-10-16T15:23:31.079Z,2565.7
2022-10-16T15:25:28.164Z,2321.6
2022-10-16T15:27:28.464Z,2208.3
2022-10-16T15:29:29.399Z,2100.6
2022-10-16T15:31:28.552Z,1998.2
2022-10-16T15:33:32.421Z,1900.7
2022-10-16T15:35:28.093Z,1808
2022-10-16T15:37:28.212Z,1719.9
2022-10-16T15:39:39.061Z,1556.2
2022-10-16T15:41:28.107Z,1480.3
2022-10-16T15:43:27.679Z,1408.1
2022-10-16T15:45:29.498Z,1274.1
2022-10-16T15:47:28.098Z,1212
2022-10-16T15:49:29.439Z,1096.6
2022-10-16T15:51:27.661Z,1043.1
2022-10-16T15:53:31.814Z,943.9
2022-10-16T15:55:27.841Z,854.1
2022-10-16T15:57:31.664Z,735.1
2022-10-16T15:59:28.125Z,665.1
2022-10-16T16:01:28.445Z,632.7
2022-10-16T16:03:28.426Z,572.5
2022-10-16T16:05:27.789Z,518
2022-10-16T16:07:28.238Z,445.9
2022-10-16T16:09:28.270Z,383.8
2022-10-16T16:11:29.810Z,330.3
2022-10-16T16:13:28.559Z,270.4
2022-10-16T16:15:27.748Z,221.4
2022-10-16T16:17:28.488Z,181.3
2022-10-16T16:19:28.423Z,148.4
2022-10-16T16:21:31.683Z,115.6
2022-10-16T16:23:28.556Z,90
2022-10-16T16:25:29.426Z,66.7
2022-10-16T16:27:28.013Z,54.6
2022-10-16T16:29:31.806Z,42.5
2022-10-16T16:31:28.218Z,33.1
2022-10-16T16:33:28.501Z,25.8
2022-10-16T16:35:31.603Z,20.1
2022-10-16T16:37:31.665Z,17.3
2022-10-16T16:39:28.374Z,12.2
2022-10-16T16:41:31.754Z,7.8
2022-10-16T16:43:28.255Z,5.2
2022-10-16T16:47:28.504Z,2.6
2022-10-16T16:49:28.342Z,1.7
2022-10-16T16:51:28.381Z,1.3
2022-10-16T16:53:28.400Z,1
2022-10-16T16:55:32.242Z,0.7
2022-10-16T16:57:28.887Z,0.4
2022-10-16T17:01:28.478Z,0.2
2022-10-16T17:03:28.485Z,0.1
2022-10-16T17:05:31.638Z,0.1
2022-10-16T17:07:28.709Z,0
2022-10-16T17:09:32.327Z,0
2022-10-16T17:11:28.186Z,0
2022-10-16T17:13:28.748Z,0
2022-10-16T17:15:34.772Z,0
2022-10-16T17:17:28.965Z,1
2022-10-16T17:19:27.981Z,1
2022-10-16T17:21:31.581Z,1
2022-10-16T17:23:31.750Z,1
2022-10-16T17:25:30.631Z,1
2022-10-16T17:27:31.703Z,1
2022-10-16T17:29:27.721Z,1
2022-10-16T17:31:28.507Z,1
2022-10-16T17:33:31.773Z,1
2022-10-16T17:35:28.417Z,1
2022-10-16T17:37:28.231Z,1
2022-10-16T17:39:28.254Z,1
2022-10-16T17:41:28.278Z,1
2022-10-16T17:43:29.338Z,1
2022-10-16T17:45:28.290Z,1
2022-10-16T17:47:32.205Z,1
2022-10-16T17:49:28.372Z,1
2022-10-16T17:51:28.353Z,1
2022-10-16T17:53:28.788Z,1
2022-10-16T17:57:28.487Z,1
2022-10-16T17:59:30.878Z,1
2022-10-16T18:01:28.528Z,1
2022-10-16T18:03:31.824Z,1
2022-10-16T18:05:31.885Z,1
2022-10-16T18:07:28.518Z,1
2022-10-16T18:09:29.532Z,1
2022-10-16T18:11:28.594Z,1
2022-10-16T18:13:28.551Z,1
2022-10-16T18:15:28.395Z,1
2022-10-16T18:17:32.234Z,1
2022-10-16T18:19:28.277Z,1
2022-10-16T18:21:31.728Z,1
2022-10-16T18:23:31.303Z,1
2022-10-16T18:25:31.869Z,1
2022-10-16T18:27:31.728Z,1
2022-10-16T18:29:28.460Z,1
2022-10-16T18:31:28.457Z,1
2022-10-16T18:33:30.145Z,1
2022-10-16T18:35:34.646Z,1
2022-10-16T18:37:31.815Z,1
2022-10-16T18:39:28.481Z,1
2022-10-16T18:41:28.317Z,1
2022-10-16T18:43:31.758Z,1
2022-10-16T18:45:28.434Z,1
2022-10-16T18:47:28.714Z,1
2022-10-16T18:49:29.526Z,1
2022-10-16T18:51:27.944Z,1
2022-10-16T18:55:34.901Z,1
2022-10-16T18:57:28.606Z,1
2022-10-16T18:59:31.669Z,1
2022-10-16T19:01:31.843Z,1
2022-10-16T19:03:27.833Z,1
2022-10-16T19:05:34.503Z,1
2022-10-16T19:07:28.393Z,1
2022-10-16T19:09:29.482Z,1
2022-10-16T19:11:37.898Z,1
2022-10-16T19:13:28.667Z,1
2022-10-16T19:15:28.329Z,1
2022-10-16T19:17:28.490Z,1
2022-10-16T19:19:34.820Z,1
2022-10-16T19:21:28.307Z,1
2022-10-16T19:23:27.963Z,1
2022-10-16T19:25:28.533Z,1
2022-10-16T19:27:31.236Z,1
2022-10-16T19:29:31.316Z,1
2022-10-16T19:31:34.718Z,1
2022-10-16T19:33:28.889Z,1
2022-10-16T19:37:28.286Z,1
2022-10-16T19:39:28.408Z,1
2022-10-16T19:41:31.673Z,1
2022-10-16T19:45:27.891Z,1
2022-10-16T19:47:28.261Z,1
2022-10-16T19:49:30.902Z,1
2022-10-16T19:51:28.417Z,1
2022-10-16T19:53:28.394Z,1
2022-10-16T19:55:28.380Z,1
2022-10-16T19:57:28.423Z,1
2022-10-16T20:01:31.855Z,1
2022-10-16T20:03:31.715Z,1
2022-10-16T20:05:31.773Z,1
2022-10-16T20:07:34.986Z,1
2022-10-16T20:09:31.884Z,1
2022-10-16T20:11:31.588Z,1
2022-10-16T20:13:28.445Z,1
2022-10-16T20:15:31.944Z,1
2022-10-16T20:17:28.605Z,1
2022-10-16T20:19:30.960Z,1
2022-10-16T20:21:28.480Z,1
2022-10-16T20:23:29.876Z,1
2022-10-16T20:25:28.473Z,1
2022-10-16T20:27:31.397Z,1
2022-10-16T20:29:28.174Z,1
2022-10-16T20:31:28.252Z,1
2022-10-16T20:33:35.931Z,1
2022-10-16T20:35:34.930Z,1
2022-10-16T20:37:28.647Z,1
2022-10-16T20:39:33.048Z,1
2022-10-16T20:41:28.264Z,1
2022-10-16T20:43:28.131Z,1
2022-10-16T20:45:31.562Z,1
2022-10-16T20:47:28.589Z,1
2022-10-16T20:49:39.789Z,1
2022-10-16T20:51:30.960Z,1
2022-10-16T20:53:28.399Z,1
2022-10-16T20:55:28.316Z,1
2022-10-16T20:57:36.153Z,1
2022-10-16T20:59:28.322Z,1
2022-10-16T21:01:28.503Z,1
2022-10-16T21:03:31.586Z,1
2022-10-16T21:05:28.390Z,1
2022-10-16T21:07:28.623Z,1
2022-10-16T21:09:31.752Z,1
2022-10-16T21:11:28.363Z,1
2022-10-16T21:13:32.913Z,1
2022-10-16T21:15:28.261Z,1
2022-10-16T21:17:36.019Z,1
2022-10-16T21:19:28.493Z,1
2022-10-16T21:23:28.637Z,1
2022-10-16T21:25:28.191Z,1
2022-10-16T21:27:28.654Z,1
2022-10-16T21:29:29.213Z,1
2022-10-16T21:31:28.465Z,1
2022-10-16T21:33:28.173Z,1
2022-10-16T21:35:35.881Z,1
2022-10-16T21:37:28.460Z,1
2022-10-16T21:39:28.424Z,1
2022-10-16T21:41:28.176Z,1
2022-10-16T21:43:27.956Z,1
2022-10-16T21:45:31.730Z,1
2022-10-16T21:47:28.412Z,1
2022-10-16T21:49:31.812Z,1
2022-10-16T21:51:28.138Z,1
2022-10-16T21:53:34.479Z,1
2022-10-16T21:55:28.356Z,1
2022-10-16T21:57:28.435Z,1
2022-10-16T21:59:29.186Z,1
2022-10-16T22:01:31.728Z,1
2022-10-16T22:03:28.441Z,1
2022-10-16T22:05:28.380Z,1
2022-10-16T22:07:31.757Z,1
2022-10-16T22:09:28.445Z,1
2022-10-16T22:11:31.913Z,1
2022-10-16T22:13:31.831Z,1
2022-10-16T22:15:28.467Z,1
2022-10-16T22:17:28.545Z,1
2022-10-16T22:19:31.857Z,1
2022-10-16T22:21:28.489Z,1
2022-10-16T22:23:33.125Z,1
2022-10-16T22:25:28.466Z,1
2022-10-16T22:27:34.842Z,1
2022-10-16T22:29:28.349Z,1
2022-10-16T22:31:28.335Z,1
2022-10-16T22:33:28.635Z,1
2022-10-16T22:35:28.378Z,1
2022-10-16T22:37:34.146Z,1
2022-10-16T22:39:28.224Z,1
2022-10-16T22:41:28.473Z,1
2022-10-16T22:43:28.393Z,1
2022-10-16T22:45:31.706Z,1
2022-10-16T22:47:28.390Z,1
2022-10-16T22:49:31.672Z,1
2022-10-16T22:51:28.439Z,1
2022-10-16T22:55:27.941Z,1
2022-10-16T22:57:28.549Z,1
2022-10-16T22:59:28.504Z,1
2022-10-16T23:01:28.516Z,1
2022-10-16T23:03:28.617Z,1
2022-10-16T23:05:28.276Z,1
2022-10-16T23:07:31.709Z,1
2022-10-16T23:09:32.084Z,1
2022-10-16T23:11:28.049Z,1
2022-10-16T23:13:29.581Z,1
2022-10-16T23:15:31.686Z,1
2022-10-16T23:17:31.557Z,1
2022-10-16T23:19:28.450Z,1
2022-10-16T23:21:31.847Z,1
2022-10-16T23:23:28.463Z,1
2022-10-16T23:25:32.343Z,1
2022-10-16T23:27:28.483Z,1
2022-10-16T23:29:28.458Z,1
2022-10-16T23:31:28.353Z,1
2022-10-16T23:33:28.617Z,1
2022-10-16T23:35:29.591Z,1
2022-10-16T23:39:31.766Z,1
2022-10-16T23:41:31.703Z,1
2022-10-16T23:43:28.255Z,1
2022-10-16T23:45:28.329Z,1
2022-10-16T23:49:28.523Z,1
2022-10-16T23:51:28.404Z,1
2022-10-16T23:53:28.529Z,1
2022-10-16T23:57:31.741Z,1
